Terminal Aerodrome Forecast
Issued by NWS

Home | Current Version | Previous Version | Text Only | Print | Product List | Glossary On
Versions: 1 2 3 4 5 6 7 8 9 10 11 12 13 14 15 16 17 18 19 20
000
FTUS42 KGSP 272327
TAFHKY
TAF
KHKY 272327Z 2800/2824 VRB03KT 5SM -SHRA OVC025
     FM280100 VRB03KT P6SM SCT015 BKN030
     FM280500 VRB02KT 4SM BR SCT008 BKN015
     FM281400 18004KT P6SM SCT020
     FM281700 20008KT P6SM SCT040=

USA.gov is the U.S. government's official web portal to all federal, state and local government web resources and services.